Mobile Regional Airport
KMOB : now visible

Airfield :











YOU CAN JOIN US ON...

 
LOGIN :

Register | Disclaimer

   EN    FR    IT 

 









Legend :    VFR   Marginal VFR   IFR   Intensive IFR   Very Intensive IFR
Visi :
Ceiling :
>= 8 km
>= 3000ft
5 to 8 km
1000 to 3000 ft
1500m to 5 km
500 to 1000 ft
800 to 1500m
200 to 500 ft
< 800m
< 200 ft
Symbols :   Thunderstorms  Fog  Heavy snow  Heavy precipitations  Wind > 20 kt






- Airport Elevation : 219 ft
- IATA code : MOB


KMOB - Mobile Regional

CURRENT METAR :
  • 230056Z 17007KT 10SM FEW045 SCT250 21/17 A3001 RMK AO2 SLP162 T02060167

EXPIRED METARs :
  • 222356Z 17004KT 10SM FEW044 21/17 A3001 RMK AO2 SLP161 T02060167 10267 20206 58001
  • 222256Z 18005KT 10SM SCT045 SCT250 21/16 A3002 RMK AO2 SLP161 T02110161

TAF KMOB
Valid from the 23 at 00:00 until the 24 at 00:00 UTC


222326Z 2300/2324 19006KT P6SM SCT050 BKN250
FM230300 19006KT P6SM VCSH BKN050
FM231200 22007KT 5SM SHRA BR BKN020
FM231800 27011KT P6SM OVC007
FM232100 31011KT P6SM BKN250



MET'MAP, your aeronautical weather chart ! - Copyright ORBIFLY December 2007 - Disclaimer

ORBIFLY MET'MAP TEAM :

Programming & Development : Alexandra Zaïnal
Concept & Development : Baudouin d'Aumeries
Co-Development & Prog : Marc-Olivier Méhu
Technical & hardware support : Manuel Goepfert

Contact : metmap@orbifly.com




SOURCES & CREDITS :

   NOAA       Earth
Advisory